Flight Track Log - Related Links

Times and Time Zones

All times are in EDT time to prevent confusion due to time zone crossing. See the N180KT flight status page for this flight to view local times or setup timezone preferences in your user account.

Time Position Orientation Groundspeed Altitude Reporting Facility
EDT Latitude Longitude Course Direction KTS MPH feet Rate Location/Type
Tue 04:13:24 PM 34.8031 -82.4906 274° West 148 170 4,100  Level Atlanta Center
Tue 04:14:24 PM 34.8056 -82.5386 274° West 142 163 4,800 700 Climbing Atlanta Center
Tue 04:15:24 PM 34.8083 -82.5817 275° West 142 163 5,500 600 Climbing Atlanta Center
Tue 04:16:24 PM 34.8067 -82.6272 260° West 142 163 6,000 250 Climbing Atlanta Center
Tue 04:17:24 PM 34.7822 -82.6731 237° Southwest 142 163 6,000  Level Atlanta Center
Tue 04:18:24 PM 34.7575 -82.7164 235° Southwest 154 177 6,000  Level Atlanta Center
Tue 04:19:24 PM 34.7350 -82.7547 234° Southwest 160 184 6,000  Level Atlanta Center
Tue 04:20:24 PM 34.7144 -82.7906 235° Southwest 150 173 6,000  Level Atlanta Center
Tue 04:21:24 PM 34.6919 -82.8311 236° Southwest 145 167 6,000  Level Atlanta Center
Tue 04:22:24 PM 34.6694 -82.8719 236° Southwest 145 167 6,000  Level Atlanta Center
Tue 04:23:24 PM 34.6469 -82.9153 238° Southwest 150 173 6,000  Level Atlanta Center
Tue 04:24:24 PM 34.6369 -82.9583 254° West 143 165 6,000  Level Atlanta Center
Tue 04:25:24 PM 34.6247 -83.0039 252° West 138 159 6,000  Level Atlanta Center
Tue 04:26:24 PM 34.5958 -83.0394 225° Southwest 143 165 6,000  Level Atlanta Center
Tue 04:27:24 PM 34.5647 -83.0625 211° Southwest 138 159 6,000  Level Atlanta Center
Tue 04:28:24 PM 34.5400 -83.1058 235° Southwest 144 166 6,000  Level Atlanta Center
Tue 04:29:24 PM 34.5172 -83.1439 234° Southwest 144 166 6,000  Level Atlanta Center
Tue 04:30:24 PM 34.5008 -83.1742 237° Southwest 132 152 6,000  Level Atlanta Center
Tue 04:31:24 PM 34.4761 -83.2122 232° Southwest 132 152 6,000  Level Atlanta Center
Tue 04:32:24 PM 34.4553 -83.2503 236° Southwest 132 152 6,000  Level Atlanta Center
Tue 04:33:24 PM 34.4328 -83.2908 236° Southwest 138 159 6,000  Level Atlanta Center
Tue 04:34:24 PM 34.4119 -83.3286 236° Southwest 144 166 6,000  Level Atlanta Center
Tue 04:35:24 PM 34.3936 -83.3717 243° Southwest 144 166 6,000  Level Atlanta Center
Tue 04:36:24 PM 34.3853 -83.4144 257° West 139 160 6,000  Level Atlanta Center
Tue 04:37:24 PM 34.3689 -83.4575 245° Southwest 139 160 6,000  Level Atlanta Center
Tue 04:38:24 PM 34.3567 -83.5028 252° West 139 160 6,000  Level Atlanta Center
Tue 04:39:24 PM 34.3442 -83.5406 248° West 139 160 6,000  Level Atlanta Center
Tue 04:40:24 PM 34.3319 -83.5886 253° West 139 160 6,000  Level Atlanta Center
Tue 04:41:24 PM 34.3175 -83.6314 248° West 144 166 6,000  Level Atlanta Center
Tue 04:42:24 PM 34.3050 -83.6742 251° West 144 166 6,000  Level Atlanta Center
Tue 04:44:21 PM 34.2833 -83.7667 254° West 141 162 6,000  Level Atlanta TRACON
Tue 04:45:21 PM 34.2667 -83.8000 239° Southwest 135 155 6,000 50 Level Atlanta TRACON
Tue 04:46:21 PM 34.2500 -83.8500 248° West 136 157 6,100  Climbing Atlanta TRACON
Tue 04:47:21 PM 34.2333 -83.9000 248° West 143 165 6,000 -48 Descending Atlanta TRACON
Tue 04:48:27 PM 34.2167 -83.9500 248° West 147 169 6,000  Level Atlanta TRACON
Tue 04:49:21 PM 34.2167 -83.9833 270° West 148 170 6,000  Level Atlanta TRACON
Tue 04:50:21 PM 34.2000 -84.0333 248° West 143 165 6,000 -50 Level Atlanta TRACON
Tue 04:51:21 PM 34.1833 -84.0667 239° Southwest 154 177 5,900 -333 Descending Atlanta TRACON
Tue 04:52:27 PM 34.1667 -84.1333 253° West 151 174 5,300 -524 Descending Atlanta TRACON
Tue 04:53:27 PM 34.1500 -84.1667 239° Southwest 144 166 4,800 -476 Descending Atlanta TRACON
Tue 04:54:33 PM 34.1333 -84.2167 248° West 144 166 4,300 -400 Descending Atlanta TRACON
Tue 04:55:27 PM 34.1167 -84.2667 248° West 146 168 4,000 -167 Descending Atlanta TRACON
Tue 04:56:21 PM 34.1167 -84.3000 270° West 126 145 4,000 -100 Level Atlanta TRACON
Tue 04:57:27 PM 34.1000 -84.3500 248° West 128 147 3,800 -333 Descending Atlanta TRACON
Tue 04:58:27 PM 34.0833 -84.3833 239° Southwest 144 166 3,300 -316 Descending Atlanta TRACON
Tue 04:59:21 PM 34.0667 -84.4333 248° West 136 157 3,200 -316 Descending Atlanta TRACON
Tue 05:00:21 PM 34.0500 -84.4667 239° Southwest 139 160 2,700 -571 Descending Atlanta TRACON
Tue 05:01:27 PM 34.0167 -84.5000 220° Southwest 119 137 2,000 -333 Descending Atlanta TRACON
Tue 05:02:27 PM 34.0167 -84.5333 270° West 106 122 2,000  Level Atlanta TRACON
Tue 05:04:00 PM 34.0000 -84.5833 244° Southwest  Level FlightAware Approximate
Tue 05:11:00 PM 34.0132 -84.5971 244° Southwest  Level Estimated
Tue 05:12:00 PM 34.0132 -84.5971 244° Southwest  Level Estimated

Login

Don't have an account? Register now (free) for customized features, flight alerts, and more!